Cruise inventory

RV Johan Hjort JH07/00

Cruise plan

Cruise Info. 
Ship name (ship code)RV Johan Hjort (58J3)
Cruise identifierJH07/00
Cruise period2000-05-27 — 2000-06-19
StatusCompleted
Ocean/sea areas 
GeneralBarents Sea
Greenland Sea
Norwegian Sea
Measurements 
Physical oceanography 
CTD stationsQuantity: number of stations = 120
Data held at BODC 
Series/Profiles 
50  CTD/STD cast
Electrical conductivity of the water column
Vertical spatial coordinates
Salinity of the water column
Temperature of the water column
Electrical conductivity of the water column
Vertical spatial coordinates
Salinity of the water column
Temperature of the water column

BODC idDate/TimeLocationDoc.
5865272000-05-27 21:24 68° 24' 15" N  14° 4' 27" E  View metadata report for BODC series reference number 586527
5865392000-05-27 21:45 68° 25' 50" N  14° 0' 54" E  View metadata report for BODC series reference number 586539
5865402000-05-27 22:30 68° 28' 36" N  13° 52' 50" E  View metadata report for BODC series reference number 586540
5865522000-05-27 23:01 68° 30' 42" N  13° 47' 1" E  View metadata report for BODC series reference number 586552
5865642000-05-27 23:41 68° 32' 40" N  13° 41' 3" E  View metadata report for BODC series reference number 586564
5865762000-05-28 00:09 68° 34' 45" N  13° 35' 2" E  View metadata report for BODC series reference number 586576
5865882000-05-28 00:50 68° 37' 0" N  13° 28' 58" E  View metadata report for BODC series reference number 586588
5866072000-05-28 01:53 68° 44' 0" N  13° 10' 1" E  View metadata report for BODC series reference number 586607
5866192000-05-28 02:39 68° 46' 59" N  12° 57' 57" E  View metadata report for BODC series reference number 586619
5866202000-05-28 03:19 68° 50' 59" N  12° 48' 7" E  View metadata report for BODC series reference number 586620
5866322000-05-28 04:33 68° 54' 3" N  12° 38' 13" E  View metadata report for BODC series reference number 586632
5866442000-05-28 06:24 69° 2' 8" N  12° 17' 11" E  View metadata report for BODC series reference number 586644
5866562000-05-28 12:03 69° 8' 0" N  11° 56' 52" E  View metadata report for BODC series reference number 586656
5866682000-05-28 14:25 69° 14' 0" N  11° 37' 0" E  View metadata report for BODC series reference number 586668
5866812000-05-28 18:06 69° 29' 4" N  10° 56' 34" E  View metadata report for BODC series reference number 586681
5866932000-05-29 02:13 69° 42' 23" N  10° 12' 20" E  View metadata report for BODC series reference number 586693
5867002000-05-29 04:16 69° 56' 59" N  9° 34' 47" E  View metadata report for BODC series reference number 586700
5867122000-05-29 10:38 70° 10' 0" N  8° 53' 0" E  View metadata report for BODC series reference number 586712
5867242000-05-29 14:25 70° 24' 6" N  8° 11' 49" E  View metadata report for BODC series reference number 586724
5867362000-05-29 20:05 70° 44' 55" N  7° 4' 53" E  View metadata report for BODC series reference number 586736
5867482000-05-30 01:09 71° 4' 57" N  6° 0' 11" E  View metadata report for BODC series reference number 586748
5867612000-05-30 05:47 71° 24' 56" N  4° 54' 45" E  View metadata report for BODC series reference number 586761
5867732000-05-30 11:18 71° 44' 57" N  3° 50' 10" E  View metadata report for BODC series reference number 586773
5867852000-05-30 16:00 72° 5' 1" N  2° 45' 7" E  View metadata report for BODC series reference number 586785
5867972000-05-30 20:38 72° 24' 55" N  1° 39' 50" E  View metadata report for BODC series reference number 586797
5868042000-05-31 02:06 72° 44' 55" N  0° 34' 52" E  View metadata report for BODC series reference number 586804
5868162000-05-31 06:31 73° 5' 1" N  0° 29' 57" W  View metadata report for BODC series reference number 586816
5868282000-05-31 11:56 73° 24' 56" N  1° 34' 55" W  View metadata report for BODC series reference number 586828
5868412000-05-31 16:32 73° 44' 53" N  2° 40' 7" W  View metadata report for BODC series reference number 586841
5868532000-05-31 21:58 74° 4' 54" N  3° 40' 10" W  View metadata report for BODC series reference number 586853
5868652000-06-10 20:37 74° 14' 58" N  19° 10' 19" E  View metadata report for BODC series reference number 586865
5868772000-06-10 21:11 74° 10' 0" N  19° 11' 15" E  View metadata report for BODC series reference number 586877
5868892000-06-10 22:11 74° 0' 0" N  19° 13' 9" E  View metadata report for BODC series reference number 586889
5868902000-06-10 23:26 73° 49' 57" N  19° 16' 10" E  View metadata report for BODC series reference number 586890
5869082000-06-11 00:31 73° 39' 57" N  19° 18' 1" E  View metadata report for BODC series reference number 586908
5869212000-06-11 01:40 73° 29' 57" N  19° 19' 55" E  View metadata report for BODC series reference number 586921
5869332000-06-11 03:57 73° 14' 59" N  19° 23' 53" E  View metadata report for BODC series reference number 586933
5869452000-06-11 05:42 73° 0' 5" N  19° 28' 23" E  View metadata report for BODC series reference number 586945
5869572000-06-11 08:02 72° 45' 1" N  19° 30' 55" E  View metadata report for BODC series reference number 586957
5869692000-06-11 09:43 72° 29' 58" N  19° 33' 54" E  View metadata report for BODC series reference number 586969
5869702000-06-11 11:57 72° 15' 2" N  19° 37' 3" E  View metadata report for BODC series reference number 586970
5869822000-06-11 13:49 72° 0' 2" N  19° 40' 55" E  View metadata report for BODC series reference number 586982
5869942000-06-11 15:59 71° 45' 0" N  19° 44' 1" E  View metadata report for BODC series reference number 586994
5870082000-06-11 17:36 71° 29' 59" N  19° 47' 57" E  View metadata report for BODC series reference number 587008
5870212000-06-11 19:32 71° 20' 2" N  19° 50' 3" E  View metadata report for BODC series reference number 587021
5870332000-06-11 20:40 71° 10' 2" N  19° 52' 5" E  View metadata report for BODC series reference number 587033
5870452000-06-11 21:51 71° 0' 2" N  19° 53' 58" E  View metadata report for BODC series reference number 587045
5870572000-06-11 23:23 70° 50' 2" N  19° 56' 11" E  View metadata report for BODC series reference number 587057
5870692000-06-12 00:31 70° 40' 1" N  19° 58' 1" E  View metadata report for BODC series reference number 587069
5870702000-06-12 01:36 70° 30' 2" N  19° 59' 53" E  View metadata report for BODC series reference number 587070